createdAt,value
2019-03-25T00:00:57.598Z,1009.44
2019-03-25T00:01:57.590Z,1009.41
2019-03-25T00:02:57.597Z,1009.41
2019-03-25T00:03:57.573Z,1009.34
2019-03-25T00:04:57.556Z,1009.36
2019-03-25T00:05:57.540Z,1009.37
2019-03-25T00:06:58.457Z,1009.33
2019-03-25T00:07:57.542Z,1009.37
2019-03-25T00:09:04.894Z,1009.40
2019-03-25T00:09:58.507Z,1009.33
2019-03-25T00:10:57.485Z,1009.33
2019-03-25T00:11:57.494Z,1009.32
2019-03-25T00:12:57.477Z,1009.36
2019-03-25T00:13:57.490Z,1009.31
2019-03-25T00:14:57.467Z,1009.30
2019-03-25T00:15:57.446Z,1009.31
2019-03-25T00:16:57.417Z,1009.31
2019-03-25T00:17:57.411Z,1009.25
2019-03-25T00:18:57.431Z,1009.26
2019-03-25T00:19:57.394Z,1009.23
2019-03-25T00:20:57.378Z,1009.18
2019-03-25T00:21:57.364Z,1009.23
2019-03-25T00:22:57.356Z,1009.16
2019-03-25T00:23:57.346Z,1009.15
2019-03-25T00:24:57.357Z,1009.15
2019-03-25T00:25:57.320Z,1009.09
2019-03-25T00:26:57.309Z,1009.09
2019-03-25T00:27:57.298Z,1009.08
2019-03-25T00:28:57.298Z,1009.08
2019-03-25T00:29:57.279Z,1009.03
2019-03-25T00:30:57.297Z,1009.01
2019-03-25T00:31:57.254Z,1009.03
2019-03-25T00:32:57.238Z,1009.09
2019-03-25T00:33:57.239Z,1008.96
2019-03-25T00:34:57.222Z,1008.91
2019-03-25T00:35:57.215Z,1008.94
2019-03-25T00:36:57.209Z,1008.93
2019-03-25T00:37:57.185Z,1008.88
2019-03-25T00:38:57.176Z,1008.90
2019-03-25T00:39:57.171Z,1008.93
2019-03-25T00:40:57.167Z,1008.88
2019-03-25T00:41:57.140Z,1008.88
2019-03-25T00:42:57.127Z,1008.85
2019-03-25T00:43:57.117Z,1008.87
2019-03-25T00:44:57.102Z,1008.81
2019-03-25T00:45:57.109Z,1008.80
2019-03-25T00:46:57.093Z,1008.81
2019-03-25T00:47:57.069Z,1008.76
2019-03-25T00:48:57.063Z,1008.73
2019-03-25T00:49:57.059Z,1008.72
2019-03-25T00:50:57.037Z,1008.73
2019-03-25T00:51:57.051Z,1008.68
2019-03-25T00:52:57.023Z,1008.71
2019-03-25T00:53:57.034Z,1008.67
2019-03-25T00:54:56.995Z,1008.69
2019-03-25T00:55:56.985Z,1008.63
2019-03-25T00:56:56.971Z,1008.58
2019-03-25T00:57:56.973Z,1008.53
2019-03-25T00:58:56.961Z,1008.59
2019-03-25T00:59:56.951Z,1008.52
2019-03-25T01:00:56.934Z,1008.52
2019-03-25T01:01:56.920Z,1008.43
2019-03-25T01:02:56.943Z,1008.48
2019-03-25T01:03:56.893Z,1008.42
2019-03-25T01:04:56.878Z,1008.39
2019-03-25T01:05:56.871Z,1008.35
2019-03-25T01:06:56.866Z,1008.32
2019-03-25T01:07:56.877Z,1008.35
2019-03-25T01:08:56.869Z,1008.37
2019-03-25T01:09:56.826Z,1008.37
2019-03-25T01:10:56.818Z,1008.27
2019-03-25T01:11:56.843Z,1008.28
2019-03-25T01:12:56.839Z,1008.25
2019-03-25T01:13:56.794Z,1008.24
2019-03-25T01:14:56.782Z,1008.21
2019-03-25T01:15:56.764Z,1008.20
2019-03-25T01:16:56.751Z,1008.18
2019-03-25T01:17:56.755Z,1008.17
2019-03-25T01:18:56.735Z,1008.17
2019-03-25T01:19:56.716Z,1008.21
2019-03-25T01:20:56.712Z,1008.14
2019-03-25T01:21:56.698Z,1008.19
2019-03-25T01:22:56.732Z,1008.15
2019-03-25T01:23:56.707Z,1008.11
2019-03-25T01:25:01.758Z,1008.11
2019-03-25T01:25:57.654Z,1008.06
2019-03-25T01:26:56.638Z,1008.07
2019-03-25T01:27:56.632Z,1008.01
2019-03-25T01:28:56.616Z,1007.99
2019-03-25T01:29:56.622Z,1007.98
2019-03-25T01:30:56.589Z,1007.95
2019-03-25T01:31:56.583Z,1007.93
2019-03-25T01:32:56.575Z,1007.91
2019-03-25T01:33:56.560Z,1007.91
2019-03-25T01:34:56.584Z,1007.93
2019-03-25T01:35:56.547Z,1007.85
2019-03-25T01:36:56.535Z,1007.82
2019-03-25T01:37:56.517Z,1007.81
2019-03-25T01:38:56.503Z,1007.77
2019-03-25T01:39:56.504Z,1007.73
2019-03-25T01:40:56.500Z,1007.71
2019-03-25T01:41:56.478Z,1007.66
2019-03-25T01:42:56.470Z,1007.65
2019-03-25T01:43:56.482Z,1007.64
2019-03-25T01:44:56.439Z,1007.60
2019-03-25T01:45:56.451Z,1007.56
2019-03-25T01:46:56.416Z,1007.58
2019-03-25T01:47:56.408Z,1007.58
2019-03-25T01:48:56.396Z,1007.56
2019-03-25T01:49:56.388Z,1007.58
2019-03-25T01:50:56.410Z,1007.55
2019-03-25T01:51:56.388Z,1007.53
2019-03-25T01:52:56.372Z,1007.58
2019-03-25T01:53:56.347Z,1007.50
2019-03-25T01:54:56.330Z,1007.48
2019-03-25T01:55:56.316Z,1007.44
2019-03-25T01:56:56.344Z,1007.35
2019-03-25T01:57:56.300Z,1007.33
2019-03-25T01:58:56.289Z,1007.28
2019-03-25T01:59:56.279Z,1007.27
2019-03-25T02:00:56.283Z,1007.23
2019-03-25T02:01:56.257Z,1007.15
2019-03-25T02:02:56.257Z,1007.15
2019-03-25T02:03:56.232Z,1007.15
2019-03-25T02:04:56.223Z,1007.11
2019-03-25T02:05:56.214Z,1007.05
2019-03-25T02:06:56.208Z,1007.10
2019-03-25T02:07:56.201Z,1007.04
2019-03-25T02:08:56.180Z,1006.94
2019-03-25T02:09:56.166Z,1006.96
2019-03-25T02:10:56.168Z,1006.96
2019-03-25T02:11:56.160Z,1006.93
2019-03-25T02:12:56.205Z,1006.96
2019-03-25T02:13:56.119Z,1006.95
2019-03-25T02:14:56.120Z,1006.94
2019-03-25T02:15:56.101Z,1006.87
2019-03-25T02:16:56.103Z,1006.85
2019-03-25T02:17:56.091Z,1006.76
2019-03-25T02:18:56.061Z,1006.78
2019-03-25T02:19:56.136Z,1006.67
2019-03-25T02:20:56.050Z,1006.66
2019-03-25T02:21:56.043Z,1006.59
2019-03-25T02:22:56.216Z,1006.59
2019-03-25T02:23:56.015Z,1006.61
2019-03-25T02:24:56.045Z,1006.60
2019-03-25T02:25:55.991Z,1006.54
2019-03-25T02:26:56.001Z,1006.54
2019-03-25T02:27:55.972Z,1006.50
2019-03-25T02:28:55.957Z,1006.43
2019-03-25T02:29:55.951Z,1006.40
2019-03-25T02:30:55.985Z,1006.40
2019-03-25T02:31:55.918Z,1006.45
2019-03-25T02:32:55.910Z,1006.30
2019-03-25T02:33:55.898Z,1006.27
2019-03-25T02:34:55.898Z,1006.30
2019-03-25T02:35:55.897Z,1006.24
2019-03-25T02:36:55.864Z,1006.24
2019-03-25T02:37:55.854Z,1006.24
2019-03-25T02:38:55.868Z,1006.26
2019-03-25T02:39:55.876Z,1006.17
2019-03-25T02:40:55.859Z,1006.16
2019-03-25T02:41:55.807Z,1006.15
2019-03-25T02:42:55.807Z,1006.10
2019-03-25T02:43:55.800Z,1006.09
2019-03-25T02:44:55.778Z,1006.09
2019-03-25T02:45:55.768Z,1006.06
2019-03-25T02:46:55.780Z,1006.01
2019-03-25T02:47:55.745Z,1006.05
2019-03-25T02:48:55.729Z,1006.00
2019-03-25T02:49:55.718Z,1006.01
2019-03-25T02:50:55.710Z,1006.02
2019-03-25T02:51:55.714Z,1006.06
2019-03-25T02:52:55.683Z,1006.03
2019-03-25T02:53:55.672Z,1006.02
2019-03-25T02:54:55.657Z,1006.05
2019-03-25T02:55:55.653Z,1006.08
2019-03-25T02:56:55.648Z,1006.06
2019-03-25T02:57:55.623Z,1006.04
2019-03-25T02:58:55.615Z,1005.97
2019-03-25T02:59:55.600Z,1005.95
2019-03-25T03:00:55.602Z,1006.04
2019-03-25T03:01:55.615Z,1005.99
2019-03-25T03:02:55.571Z,1006.05
2019-03-25T03:03:55.561Z,1006.00
2019-03-25T03:04:55.547Z,1005.96
2019-03-25T03:05:55.535Z,1005.89
2019-03-25T03:06:55.522Z,1005.83
2019-03-25T03:07:55.524Z,1005.85
2019-03-25T03:08:55.513Z,1005.75
2019-03-25T03:09:55.492Z,1005.77
2019-03-25T03:10:55.476Z,1005.76
2019-03-25T03:11:55.467Z,1005.80
2019-03-25T03:12:55.483Z,1005.75
2019-03-25T03:13:55.448Z,1005.71
2019-03-25T03:14:55.433Z,1005.66
2019-03-25T03:15:55.453Z,1005.62
2019-03-25T03:16:55.414Z,1005.61
2019-03-25T03:17:55.413Z,1005.47
2019-03-25T03:18:55.420Z,1005.64
2019-03-25T03:19:55.591Z,1005.58
2019-03-25T03:20:55.414Z,1005.49
2019-03-25T03:21:55.370Z,1005.50
2019-03-25T03:22:55.411Z,1005.47
2019-03-25T03:23:55.346Z,1005.47
2019-03-25T03:24:55.342Z,1005.48
2019-03-25T03:25:57.878Z,1005.42
2019-03-25T03:26:55.315Z,1005.44
2019-03-25T03:27:55.330Z,1005.40
2019-03-25T03:28:55.287Z,1005.37
2019-03-25T03:29:55.293Z,1005.38
2019-03-25T03:30:55.285Z,1005.30
2019-03-25T03:31:55.291Z,1005.36
2019-03-25T03:32:55.235Z,1005.34
2019-03-25T03:33:55.254Z,1005.31
2019-03-25T03:34:55.233Z,1005.33
2019-03-25T03:35:55.215Z,1005.28
2019-03-25T03:36:55.187Z,1005.27
2019-03-25T03:37:55.179Z,1005.23
2019-03-25T03:38:55.181Z,1005.18
2019-03-25T03:39:55.163Z,1005.23
2019-03-25T03:40:55.165Z,1005.19
2019-03-25T03:41:55.128Z,1005.15
2019-03-25T03:42:55.132Z,1005.20
2019-03-25T03:43:55.111Z,1005.16
2019-03-25T03:44:55.104Z,1005.23
2019-03-25T03:45:55.107Z,1005.11
2019-03-25T03:46:55.089Z,1005.05
2019-03-25T03:47:55.062Z,1005.06
2019-03-25T03:48:55.065Z,1005.04
2019-03-25T03:49:55.054Z,1005.11
2019-03-25T03:50:55.072Z,1005.08
2019-03-25T03:51:55.033Z,1005.04
2019-03-25T03:52:55.019Z,1005.02
2019-03-25T03:53:54.997Z,1005.00
2019-03-25T03:54:54.985Z,1004.92
2019-03-25T03:55:54.977Z,1004.93
2019-03-25T03:56:54.980Z,1004.91
2019-03-25T03:57:55.924Z,1004.86
2019-03-25T03:58:55.919Z,1004.88
2019-03-25T03:59:54.927Z,1004.91
2019-03-25T04:00:54.925Z,1004.92
2019-03-25T04:01:55.473Z,1004.92
2019-03-25T04:02:54.902Z,1004.89
2019-03-25T04:03:55.882Z,1004.94
2019-03-25T04:04:56.473Z,1004.89
2019-03-25T04:05:56.518Z,1004.86
2019-03-25T04:06:59.405Z,1004.93
2019-03-25T04:08:05.212Z,1004.94
2019-03-25T04:08:59.032Z,1004.95
2019-03-25T04:10:35.639Z,1004.94
2019-03-25T04:11:00.919Z,1004.93
2019-03-25T04:12:00.595Z,1004.94
2019-03-25T04:13:19.870Z,1004.97
2019-03-25T07:02:44.687Z,1005.70
2019-03-25T07:03:44.616Z,1005.41
2019-03-25T07:04:44.571Z,1005.54
2019-03-25T07:05:44.621Z,1005.60
2019-03-25T07:06:44.523Z,1005.63
2019-03-25T07:07:44.516Z,1005.56
2019-03-25T07:08:44.525Z,1005.52
2019-03-25T07:18:02.583Z,1005.48
2019-03-25T07:19:02.628Z,1005.56
2019-03-25T07:20:02.429Z,1005.53
2019-03-25T07:21:02.420Z,1005.55
2019-03-25T07:22:02.419Z,1005.52
2019-03-25T07:23:02.307Z,1005.49
2019-03-25T07:24:02.359Z,1005.58
2019-03-25T07:25:02.376Z,1005.39
2019-03-25T07:39:26.847Z,1005.38
2019-03-25T07:40:26.960Z,1005.50
2019-03-25T07:41:26.740Z,1005.41
2019-03-25T07:42:26.727Z,1005.33
2019-03-25T07:43:26.698Z,1005.36
2019-03-25T07:44:26.665Z,1005.50
2019-03-25T07:49:00.173Z,1005.50
2019-03-25T07:50:00.017Z,1005.53
2019-03-25T07:50:59.988Z,1005.45
2019-03-25T07:52:00.099Z,1005.38
2019-03-25T07:52:59.960Z,1005.54
2019-03-25T07:53:59.897Z,1005.54
2019-03-25T07:54:59.868Z,1005.38
2019-03-25T07:55:59.862Z,1005.30
2019-03-25T07:56:59.882Z,1005.34
2019-03-25T07:57:59.846Z,1005.39
2019-03-25T07:58:59.809Z,1005.43
2019-03-25T07:59:59.877Z,1005.35
2019-03-25T08:00:59.811Z,1005.38
2019-03-25T08:01:59.796Z,1005.45
2019-03-25T08:02:59.795Z,1005.48
2019-03-25T08:03:59.755Z,1005.41
2019-03-25T08:04:59.770Z,1005.43
2019-03-25T08:05:59.748Z,1005.42
2019-03-25T08:06:59.745Z,1005.56
2019-03-25T08:07:59.772Z,1005.46
2019-03-25T08:09:04.036Z,1005.38
2019-03-25T08:09:59.709Z,1005.58
2019-03-25T08:11:07.363Z,1005.47
2019-03-25T08:12:07.340Z,1005.49
2019-03-25T08:13:07.459Z,1005.27
2019-03-25T08:14:08.511Z,1005.26
2019-03-25T08:15:07.314Z,1005.36
2019-03-25T08:16:07.303Z,1005.37
2019-03-25T08:16:59.711Z,1005.35
2019-03-25T08:19:13.413Z,1005.29
2019-03-25T08:20:21.026Z,1005.18
2019-03-25T08:21:20.960Z,1005.32
2019-03-25T08:22:20.979Z,1005.39
2019-03-25T08:23:20.920Z,1005.28
2019-03-25T08:24:23.268Z,1005.40
2019-03-25T08:26:27.151Z,1005.38
2019-03-25T08:27:27.100Z,1005.32
2019-03-25T08:28:27.001Z,1005.40
2019-03-25T08:29:27.046Z,1005.40
2019-03-25T08:30:26.973Z,1005.40
2019-03-25T08:31:26.956Z,1005.37
2019-03-25T08:36:51.737Z,1005.51
2019-03-25T08:37:51.645Z,1005.50
2019-03-25T08:38:51.638Z,1005.53
2019-03-25T08:39:51.723Z,1005.55
2019-03-25T08:40:51.567Z,1005.56
2019-03-25T08:41:51.589Z,1005.58
2019-03-25T08:42:51.562Z,1005.54
2019-03-25T08:44:01.427Z,1005.59
2019-03-25T08:45:00.323Z,1005.60
2019-03-25T08:45:59.204Z,1005.69
2019-03-25T08:47:00.607Z,1005.55
2019-03-25T08:47:59.115Z,1005.64
2019-03-25T08:48:59.110Z,1005.82
2019-03-25T08:50:01.636Z,1005.76
2019-03-25T08:52:41.253Z,1005.82
2019-03-25T08:55:16.178Z,1005.86
2019-03-25T08:56:15.543Z,1005.83
2019-03-25T08:57:15.739Z,1005.81
2019-03-25T08:58:15.510Z,1005.95
2019-03-25T08:59:25.434Z,1005.93
2019-03-25T09:02:28.133Z,1005.91
2019-03-25T09:03:28.136Z,1005.99
2019-03-25T09:04:27.992Z,1005.93
2019-03-25T09:05:27.995Z,1005.85
2019-03-25T09:06:27.947Z,1005.92
2019-03-25T09:07:27.934Z,1005.97
2019-03-25T09:08:37.854Z,1005.96
2019-03-25T09:09:28.095Z,1006.02
2019-03-25T09:10:28.135Z,1005.96
2019-03-25T09:11:28.148Z,1005.98
2019-03-25T09:12:27.850Z,1006.00
2019-03-25T09:13:27.943Z,1006.01
2019-03-25T09:14:27.917Z,1005.98
2019-03-25T09:15:27.859Z,1006.00
2019-03-25T09:16:27.878Z,1006.00
2019-03-25T09:28:59.476Z,1005.91
2019-03-25T09:29:59.381Z,1005.88
2019-03-25T09:30:59.294Z,1005.91
2019-03-25T09:31:59.268Z,1005.87
2019-03-25T09:32:59.200Z,1005.86
2019-03-25T09:33:59.334Z,1005.85
2019-03-25T09:50:44.125Z,1005.85
2019-03-25T09:51:37.226Z,1005.83
2019-03-25T09:52:38.709Z,1005.79
2019-03-25T09:53:37.535Z,1005.79
2019-03-25T09:54:37.149Z,1005.79
2019-03-25T09:55:37.160Z,1005.80
2019-03-25T09:56:37.301Z,1005.80
2019-03-25T10:05:04.315Z,1005.99
2019-03-25T10:06:04.362Z,1005.99
2019-03-25T10:07:04.029Z,1005.99
2019-03-25T10:08:04.076Z,1006.00
2019-03-25T10:09:03.948Z,1006.11
2019-03-25T10:10:03.937Z,1006.06
2019-03-25T10:11:03.917Z,1006.07
2019-03-25T10:19:21.536Z,1006.16
2019-03-25T10:20:21.168Z,1006.22
2019-03-25T10:21:20.959Z,1006.13
2019-03-25T10:22:20.698Z,1006.21
2019-03-25T10:23:20.672Z,1006.19
2019-03-25T10:24:27.612Z,1006.13
2019-03-25T10:25:22.860Z,1006.19
2019-03-25T10:26:20.548Z,1006.15
2019-03-25T10:27:20.563Z,1006.09
2019-03-25T10:28:20.526Z,1006.12
2019-03-25T10:29:20.524Z,1006.12
2019-03-25T10:30:20.508Z,1006.07
2019-03-25T10:31:20.525Z,1006.09
2019-03-25T10:32:20.590Z,1006.01
2019-03-25T10:33:20.474Z,1006.12
2019-03-25T10:34:20.457Z,1006.13
2019-03-25T10:35:20.447Z,1006.08
2019-03-25T10:36:20.443Z,1006.11
2019-03-25T10:37:20.456Z,1005.99
2019-03-25T10:38:20.413Z,1006.08
2019-03-25T10:39:20.397Z,1006.03
2019-03-25T10:40:20.394Z,1006.06
2019-03-25T10:41:20.501Z,1006.11
2019-03-25T10:42:20.399Z,1006.18
2019-03-25T10:43:20.362Z,1006.07
2019-03-25T10:44:20.437Z,1006.07
2019-03-25T10:45:20.326Z,1006.08
2019-03-25T10:46:20.371Z,1006.07
2019-03-25T10:47:20.425Z,1006.09
2019-03-25T10:48:20.343Z,1006.14
2019-03-25T10:49:20.349Z,1006.06
2019-03-25T10:50:20.283Z,1006.17
2019-03-25T10:51:20.283Z,1006.20
2019-03-25T10:52:20.262Z,1006.16
2019-03-25T10:53:20.261Z,1006.17
2019-03-25T10:54:20.292Z,1006.16
2019-03-25T10:55:20.528Z,1006.23
2019-03-25T10:56:20.270Z,1006.22
2019-03-25T10:57:20.671Z,1006.22
2019-03-25T11:10:54.415Z,1006.20
2019-03-25T11:11:54.362Z,1006.20
2019-03-25T11:12:54.095Z,1006.15
2019-03-25T11:13:54.485Z,1006.23
2019-03-25T11:14:54.336Z,1006.12
2019-03-25T11:15:53.989Z,1006.28
2019-03-25T11:17:21.292Z,1006.27
2019-03-25T11:18:00.427Z,1006.22
2019-03-25T11:26:21.345Z,1006.36
2019-03-25T11:27:21.287Z,1006.42
2019-03-25T11:28:21.189Z,1006.37
2019-03-25T11:29:21.250Z,1006.37
2019-03-25T11:30:21.146Z,1006.47
2019-03-25T11:31:21.111Z,1006.52
2019-03-25T11:32:21.139Z,1006.45
2019-03-25T11:33:21.093Z,1006.58
2019-03-25T11:34:21.081Z,1006.54
2019-03-25T11:35:21.065Z,1006.56
2019-03-25T11:36:21.043Z,1006.47
2019-03-25T11:37:21.047Z,1006.57
2019-03-25T11:38:21.098Z,1006.56
2019-03-25T11:39:21.012Z,1006.52
2019-03-25T11:40:21.007Z,1006.52
2019-03-25T11:41:20.990Z,1006.48
2019-03-25T11:42:20.990Z,1006.50
2019-03-25T11:43:20.995Z,1006.55
2019-03-25T11:44:20.967Z,1006.49
2019-03-25T11:45:20.948Z,1006.48
2019-03-25T11:46:20.960Z,1006.51
2019-03-25T11:47:20.921Z,1006.55
2019-03-25T11:48:20.912Z,1006.57
2019-03-25T11:49:20.909Z,1006.59
2019-03-25T11:50:20.890Z,1006.54
2019-03-25T11:51:20.917Z,1006.52
2019-03-25T11:52:20.869Z,1006.54
2019-03-25T11:53:20.853Z,1006.62
2019-03-25T11:54:20.846Z,1006.60
2019-03-25T11:55:20.832Z,1006.56
2019-03-25T11:56:20.851Z,1006.55
2019-03-25T11:57:20.820Z,1006.60
2019-03-25T11:58:20.801Z,1006.58
2019-03-25T11:59:20.812Z,1006.60
2019-03-25T12:00:20.781Z,1006.54
2019-03-25T12:01:20.769Z,1006.59
2019-03-25T12:02:20.776Z,1006.62
2019-03-25T12:03:20.755Z,1006.67
2019-03-25T12:04:20.759Z,1006.64
2019-03-25T12:05:20.728Z,1006.69
2019-03-25T12:06:20.713Z,1006.79
2019-03-25T12:07:20.760Z,1006.78
2019-03-25T12:08:20.690Z,1006.74
2019-03-25T12:09:20.677Z,1006.78
2019-03-25T12:10:20.754Z,1006.79
2019-03-25T12:11:20.651Z,1006.76
2019-03-25T12:12:20.659Z,1006.81
2019-03-25T12:13:20.641Z,1006.84
2019-03-25T12:14:20.635Z,1006.90
2019-03-25T12:15:20.616Z,1006.99
2019-03-25T12:16:20.623Z,1006.95
2019-03-25T12:17:20.592Z,1006.97
2019-03-25T12:18:20.619Z,1006.94
2019-03-25T12:19:20.564Z,1007.00
2019-03-25T12:20:20.602Z,1007.01
2019-03-25T12:21:20.542Z,1007.02
2019-03-25T12:22:20.560Z,1007.06
2019-03-25T12:23:26.390Z,1007.10
2019-03-25T12:24:21.579Z,1006.99
2019-03-25T12:25:20.523Z,1007.03
2019-03-25T12:26:20.546Z,1007.04
2019-03-25T12:27:20.530Z,1007.07
2019-03-25T12:28:20.882Z,1007.09
2019-03-25T12:29:29.676Z,1007.14
2019-03-25T12:30:21.442Z,1007.12
2019-03-25T12:31:20.451Z,1007.05
2019-03-25T12:32:20.459Z,1007.12
2019-03-25T12:33:20.485Z,1007.09
2019-03-25T12:34:20.494Z,1007.15
2019-03-25T12:35:20.432Z,1007.16
2019-03-25T12:36:20.404Z,1007.16
2019-03-25T12:37:20.360Z,1007.14
2019-03-25T12:38:20.381Z,1007.15
2019-03-25T12:39:20.704Z,1007.12
2019-03-25T12:40:20.328Z,1007.27
2019-03-25T12:41:20.315Z,1007.23
2019-03-25T12:42:20.393Z,1007.23
2019-03-25T12:43:20.412Z,1007.18
2019-03-25T12:44:20.422Z,1007.17
2019-03-25T12:45:20.346Z,1007.14
2019-03-25T12:46:20.364Z,1007.17
2019-03-25T12:47:20.365Z,1007.20
2019-03-25T12:48:20.234Z,1007.27
2019-03-25T12:49:20.228Z,1007.20
2019-03-25T12:50:20.332Z,1007.16
2019-03-25T12:51:20.267Z,1007.16
2019-03-25T12:52:20.232Z,1007.16
2019-03-25T12:53:20.224Z,1007.14
2019-03-25T12:54:20.233Z,1007.16
2019-03-25T12:55:20.176Z,1007.23
2019-03-25T12:56:20.148Z,1007.29
2019-03-25T12:57:20.214Z,1007.20
2019-03-25T12:58:20.338Z,1007.21
2019-03-25T12:59:20.158Z,1007.16
2019-03-25T13:00:20.201Z,1007.17
2019-03-25T13:01:20.092Z,1007.18
2019-03-25T13:02:20.248Z,1007.19
2019-03-25T13:03:21.505Z,1007.13
2019-03-25T13:04:20.115Z,1007.25
2019-03-25T13:05:20.119Z,1007.19
2019-03-25T13:06:20.346Z,1007.20
2019-03-25T13:07:20.053Z,1007.25
2019-03-25T13:08:20.248Z,1007.19
2019-03-25T13:09:20.010Z,1007.18
2019-03-25T13:10:20.027Z,1007.36
2019-03-25T13:11:20.058Z,1007.21
2019-03-25T13:12:19.975Z,1007.28
2019-03-25T13:13:19.967Z,1007.31
2019-03-25T13:14:19.981Z,1007.47
2019-03-25T13:15:20.084Z,1007.42
2019-03-25T13:16:20.001Z,1007.42
2019-03-25T13:17:19.901Z,1007.40
2019-03-25T13:18:19.940Z,1007.38
2019-03-25T13:19:19.945Z,1007.41
2019-03-25T13:20:19.911Z,1007.41
2019-03-25T13:21:19.873Z,1007.44
2019-03-25T13:22:19.904Z,1007.41
2019-03-25T13:23:20.012Z,1007.41
2019-03-25T13:24:19.883Z,1007.41
2019-03-25T13:25:19.883Z,1007.47
2019-03-25T13:26:19.874Z,1007.51
2019-03-25T13:27:19.866Z,1007.52
2019-03-25T13:28:19.844Z,1007.49
2019-03-25T13:29:19.816Z,1007.55
2019-03-25T13:30:19.981Z,1007.57
2019-03-25T13:31:19.845Z,1007.55
2019-03-25T13:32:19.830Z,1007.53
2019-03-25T13:33:19.773Z,1007.60
2019-03-25T13:34:19.741Z,1007.64
2019-03-25T13:35:19.825Z,1007.61
2019-03-25T13:36:19.735Z,1007.65
2019-03-25T13:37:19.868Z,1007.54
2019-03-25T13:38:19.820Z,1007.61
2019-03-25T13:39:19.692Z,1007.64
2019-03-25T13:40:19.835Z,1007.62
2019-03-25T13:41:19.723Z,1007.67
2019-03-25T13:42:19.767Z,1007.61
2019-03-25T13:43:19.624Z,1007.67
2019-03-25T13:44:19.659Z,1007.62
2019-03-25T13:45:19.646Z,1007.68
2019-03-25T13:46:19.699Z,1007.75
2019-03-25T13:47:19.806Z,1007.75
2019-03-25T13:48:19.567Z,1007.75
2019-03-25T13:49:19.606Z,1007.73
2019-03-25T13:50:20.231Z,1007.70
2019-03-25T13:51:19.541Z,1007.64
2019-03-25T13:52:19.672Z,1007.75
2019-03-25T13:53:19.506Z,1007.76
2019-03-25T13:54:19.856Z,1007.76
2019-03-25T13:55:19.514Z,1007.82
2019-03-25T13:56:19.534Z,1007.81
2019-03-25T13:57:21.453Z,1007.80
2019-03-25T13:58:19.671Z,1007.82
2019-03-25T13:59:19.461Z,1007.91
2019-03-25T14:00:19.465Z,1007.85
2019-03-25T14:01:52.624Z,1007.89
2019-03-25T14:02:20.791Z,1007.89
2019-03-25T14:03:50.153Z,1007.91
2019-03-25T14:04:19.388Z,1007.88
2019-03-25T14:05:19.373Z,1007.99
2019-03-25T14:06:19.381Z,1007.99
2019-03-25T14:07:19.511Z,1007.98
2019-03-25T14:08:19.373Z,1007.99
2019-03-25T14:09:19.365Z,1008.00
2019-03-25T14:10:19.324Z,1008.03
2019-03-25T14:11:19.296Z,1008.11
2019-03-25T14:12:19.456Z,1008.09
2019-03-25T14:13:19.284Z,1008.04
2019-03-25T14:14:19.292Z,1008.07
2019-03-25T14:15:19.250Z,1008.05
2019-03-25T14:16:19.266Z,1008.08
2019-03-25T14:17:19.239Z,1008.12
2019-03-25T14:18:19.232Z,1008.13
2019-03-25T14:19:19.246Z,1008.10
2019-03-25T14:20:19.202Z,1008.11
2019-03-25T14:21:19.207Z,1008.17
2019-03-25T14:22:19.213Z,1008.17
2019-03-25T14:23:19.167Z,1008.16
2019-03-25T14:24:19.191Z,1008.12
2019-03-25T14:25:19.134Z,1008.11
2019-03-25T14:26:19.125Z,1008.08
2019-03-25T14:27:19.117Z,1008.09
2019-03-25T14:28:19.102Z,1008.14
2019-03-25T14:29:19.106Z,1008.12
2019-03-25T14:30:19.125Z,1008.12
2019-03-25T14:31:19.069Z,1008.16
2019-03-25T14:32:19.072Z,1008.18
2019-03-25T14:33:19.050Z,1008.23
2019-03-25T14:34:19.066Z,1008.27
2019-03-25T14:35:19.028Z,1008.30
2019-03-25T14:36:19.059Z,1008.33
2019-03-25T14:37:19.009Z,1008.36
2019-03-25T14:38:19.028Z,1008.34
2019-03-25T14:39:18.983Z,1008.29
2019-03-25T14:40:18.982Z,1008.31
2019-03-25T14:41:18.957Z,1008.27
2019-03-25T14:42:18.964Z,1008.28
2019-03-25T14:43:18.943Z,1008.33
2019-03-25T14:44:18.931Z,1008.37
2019-03-25T14:45:26.393Z,1008.40
2019-03-25T14:46:19.921Z,1008.41
2019-03-25T14:47:18.896Z,1008.48
2019-03-25T14:48:18.911Z,1008.44
2019-03-25T14:49:18.876Z,1008.49
2019-03-25T14:50:18.853Z,1008.53
2019-03-25T14:51:18.860Z,1008.51
2019-03-25T14:52:18.835Z,1008.49
2019-03-25T14:53:18.843Z,1008.53
2019-03-25T14:54:18.823Z,1008.59
2019-03-25T14:55:18.816Z,1008.60
2019-03-25T14:56:18.784Z,1008.60
2019-03-25T14:57:18.816Z,1008.63
2019-03-25T14:58:18.781Z,1008.62
2019-03-25T14:59:18.764Z,1008.64
2019-03-25T15:00:25.068Z,1008.72
2019-03-25T15:01:19.738Z,1008.73
2019-03-25T15:02:18.742Z,1008.74
2019-03-25T15:03:18.748Z,1008.73
2019-03-25T15:04:18.718Z,1008.77
2019-03-25T15:05:18.701Z,1008.68
2019-03-25T15:06:18.721Z,1008.81
2019-03-25T15:07:18.667Z,1008.76
2019-03-25T15:08:18.657Z,1008.74
2019-03-25T15:09:18.706Z,1008.94
2019-03-25T15:10:18.635Z,1008.93
2019-03-25T15:11:26.283Z,1008.93
2019-03-25T15:12:18.702Z,1009.06
2019-03-25T15:13:18.718Z,1008.91
2019-03-25T15:14:18.666Z,1009.06
2019-03-25T15:15:18.729Z,1008.90
2019-03-25T15:16:18.604Z,1008.96
2019-03-25T15:17:18.559Z,1008.98
2019-03-25T15:18:18.546Z,1008.99
2019-03-25T15:19:18.537Z,1008.99
2019-03-25T15:20:18.532Z,1009.05
2019-03-25T15:21:18.531Z,1009.01
2019-03-25T15:22:18.506Z,1009.04
2019-03-25T15:23:18.509Z,1009.10
2019-03-25T15:24:18.530Z,1009.04
2019-03-25T15:25:18.484Z,1009.05
2019-03-25T15:26:18.455Z,1009.07
2019-03-25T15:27:18.469Z,1009.11
2019-03-25T15:28:18.435Z,1009.15
2019-03-25T15:29:18.430Z,1009.13
2019-03-25T15:30:18.482Z,1009.12
2019-03-25T15:31:18.417Z,1009.16
2019-03-25T15:32:18.737Z,1009.17
2019-03-25T15:33:18.421Z,1009.21
2019-03-25T15:34:18.376Z,1009.13
2019-03-25T15:35:18.361Z,1009.13
2019-03-25T15:36:18.403Z,1009.23
2019-03-25T15:37:18.327Z,1009.23
2019-03-25T15:38:18.315Z,1009.26
2019-03-25T15:39:18.318Z,1009.29
2019-03-25T15:40:18.316Z,1009.28
2019-03-25T15:41:18.292Z,1009.33
2019-03-25T15:42:18.302Z,1009.29
2019-03-25T15:43:18.280Z,1009.34
2019-03-25T15:44:18.246Z,1009.39
2019-03-25T15:45:18.248Z,1009.45
2019-03-25T15:46:18.233Z,1009.42
2019-03-25T15:47:18.276Z,1009.45
2019-03-25T15:48:18.295Z,1009.46
2019-03-25T15:49:18.250Z,1009.48
2019-03-25T15:50:18.210Z,1009.45
2019-03-25T15:51:18.206Z,1009.52
2019-03-25T15:52:18.174Z,1009.59
2019-03-25T15:53:18.166Z,1009.57
2019-03-25T15:54:18.155Z,1009.59
2019-03-25T15:55:18.129Z,1009.67
2019-03-25T15:56:18.140Z,1009.69
2019-03-25T15:57:18.119Z,1009.67
2019-03-25T15:58:25.963Z,1009.55
2019-03-25T15:59:19.140Z,1009.66
2019-03-25T16:00:18.070Z,1009.65
2019-03-25T16:01:18.073Z,1009.66
2019-03-25T16:02:18.048Z,1009.77
2019-03-25T16:03:18.053Z,1009.76
2019-03-25T16:04:18.035Z,1009.78
2019-03-25T16:05:18.097Z,1009.80
2019-03-25T16:06:18.006Z,1009.86
2019-03-25T16:07:18.066Z,1009.92
2019-03-25T16:08:17.994Z,1009.89
2019-03-25T16:09:17.971Z,1010.00
2019-03-25T16:10:17.978Z,1009.97
2019-03-25T16:11:17.947Z,1009.99
2019-03-25T16:12:17.937Z,1009.99
2019-03-25T16:13:18.033Z,1010.15
2019-03-25T16:14:17.923Z,1010.02
2019-03-25T16:15:18.023Z,1010.01
2019-03-25T16:16:17.896Z,1010.06
2019-03-25T16:17:17.879Z,1010.09
2019-03-25T16:18:17.939Z,1010.13
2019-03-25T16:19:17.858Z,1010.20
2019-03-25T16:20:17.854Z,1010.25
2019-03-25T16:21:17.902Z,1010.19
2019-03-25T16:22:17.837Z,1010.21
2019-03-25T16:23:17.840Z,1010.22
2019-03-25T16:24:17.807Z,1010.25
2019-03-25T16:25:17.812Z,1010.21
2019-03-25T16:26:17.794Z,1010.18
2019-03-25T16:27:17.830Z,1010.18
2019-03-25T16:28:17.770Z,1010.24
2019-03-25T16:29:18.131Z,1010.27
2019-03-25T16:30:17.744Z,1010.30
2019-03-25T16:31:17.761Z,1010.29
2019-03-25T16:32:17.719Z,1010.26
2019-03-25T16:33:18.259Z,1010.29
2019-03-25T16:34:17.710Z,1010.34